This demonstration page uses our WeatherBlox Daily Observations layout. Learn more.

Left ArrowRight Arrow

36.19886, -115.1175

Hourly Observations for January 8, 2021

Temp ( °F °C ) Dew Point ( °F °C ) Humidity (%) Winds ( mph kmh ) Pressure ( in mb ) Visibility ( mi km ) Precip ( " mm )
12:53 am 00:53 Clear 45 7.2 11 -11.7 25 25 NNW 13 20 30.19 1022 10 16.0934 0 0
1:53 am 01:53 Clear 42 5.6 13 -10.6 30 30 W 12 19 30.2 1023 10 16.0934 0 0
2:53 am 02:53 Clear 40 4.4 12 -11.1 32 32 S 3 6 30.2 1023 10 16.0934 0 0
3:53 am 03:53 Clear 42 5.6 11 -11.7 28 28 NNW 10 17 30.19 1022 10 16.0934 0 0
4:53 am 04:53 Clear 45 7.2 10 -12.2 24 24 NW 6 9 30.19 1022 10 16.0934 0 0
5:53 am 05:53 Clear 41 5 12 -11.1 30 30 W 5 7 30.21 1023 10 16.0934 0 0
6:53 am 06:53 Sunny 41 5 12 -11.1 30 30 WNW 8 13 30.23 1024 10 16.0934 0 0
7:53 am 07:53 Sunny 42 5.6 13 -10.6 30 30 NNW 8 13 30.25 1024 10 16.0934 0 0
8:53 am 08:53 Sunny 50 10 12 -11.1 22 22 WNW 8 13 30.27 1025 10 16.0934 0 0
9:53 am 09:53 Sunny 53 11.7 13 -10.6 20 20 Calm 30.27 1025 10 16.0934 0 0
10:53 am 10:53 Sunny 57 13.9 13 -10.6 17 17 ENE 6 9 30.23 1024 10 16.0934 0 0
11:53 am 11:53 Sunny 58 14.4 13 -10.6 17 17 E 3 6 30.19 1022 10 16.0934 0 0
12:53 pm 12:53 Sunny 59 15 14 -10 17 17 SSE 8 13 30.14 1021 10 16.0934 0 0
1:53 pm 13:53 Sunny 61 16.1 12 -11.1 14 14 VRB 3 6 30.11 1020 10 16.0934 0 0
2:53 pm 14:53 Sunny 60 15.6 12 -11.1 15 15 Calm 30.09 1019 10 16.0934 0 0
3:53 pm 15:53 Sunny 61 16.1 11 -11.7 14 14 Calm 30.09 1019 10 16.0934 0 0
4:53 pm 16:53 Clear 59 15 11 -11.7 15 15 Calm 30.1 1019 10 16.0934 0 0
5:53 pm 17:53 Clear 54 12.2 14 -10 20 20 SSW 3 6 30.1 1019 10 16.0934 0 0
6:53 pm 18:53 Clear 50 10 16 -8.9 26 26 WNW 6 9 30.1 1019 10 16.0934 0 0
7:53 pm 19:53 Clear 47 8.3 17 -8.3 30 30 NW 7 11 30.1 1019 10 16.0934 0 0
8:53 pm 20:53 Clear 46 7.8 17 -8.3 31 31 WNW 7 11 30.09 1019 10 16.0934 0 0
9:53 pm 21:53 Clear 46 7.8 12 -11.1 25 25 WNW 6 9 30.08 1019 10 16.0934 0 0
10:53 pm 22:53 Clear 45 7.2 17 -8.3 33 33 Calm 30.06 1018 10 16.0934 0 0
11:53 pm 23:53 Clear 43 6.1 15 -9.4 32 32 WSW 5 7 30.06 1018 10 16.0934 0 0

Powered by AerisWeather